Relevés horaires Spa / La Sauveniere (Belgique)


Relevés horaires à Spa / La Sauveniere - Vendredi 23 Avr. 2021
Heure UTC1 Température [°C] Vent [km/h] Hum. [%] Pres.4 [hPa] Visi. [Km] Nébu. [octa] Préc.5 [mm] Cond.
2m. Res. Ros. Dir.2 Vit. Moy. Raf.3
23:00 4.2 4.2 0.1 E 3.7 3.7 5.6 75 1028(-0.3/3h) 24 0/8 -- --
22:00 4.9 4.9 -0.3 E 1.9 3.7 5.6 69 1028(0.1/3h) 27 0/8 -- --
21:00 5.5 5.5 -- E 3.7 5.6 7.4 -- 1027.8(0.1/3h) 27 0/8 -- --
20:00 5.6 5.6 -0.9 E 3.7 3.7 3.7 63 1028(0.0/3h) 35 0/8 -- --
19:00 7.3 7.3 -1.5 N 1.9 5.6 7.4 54 1027.5(-0.3/3h) 30 0/8 -- --
18:00 9.7 9.2 -1.3 N 5.6 9.3 14.8 46 1027(-0.7/3h) 28 0/8 0/12h
--
17:00 10.7 10.4 -0.7 N 5.6 7.4 13.0 45 1027(-0.9/3h) 30 0/8 -- --
16:00 11.4 10.8 -1.5 N 7.4 7.4 14.8 41 1027.1(-1.1/3h) 25 0/8 -- --
15:00 11.9 11.4 -5.4 N 7.4 9.3 14.8 29 1027.4(-0.7/3h) 40 0/8 -- --
14:00 11.7 11.1 -4.0 N 7.4 9.3 13.0 33 1027.8(-0.4/3h) 30 0/8 -- --
13:00 11.2 11 -3.2 N 5.6 9.3 14.8 36 1028.3(0.1/3h) 30 0/8 -- --
12:00 10.1 9.7 -2.8 N 5.6 7.4 13.0 40 1028.4(-0.2/3h) 29 0/8 0/6h
--
11:00 9.3 8.8 0.2 NNO 5.6 7.4 13.0 53 1028.7(0.0/3h) 24 0/8 -- --
10:00 7.8 7.8 0.6 NNO 3.7 5.6 11.1 60 1028.9(0.3/3h) 20 0/8 -- --
09:00 6.5 5.6 -0.4 N 5.6 5.6 9.3 61 1029.4(0.8/3h) 21 0/8 -- --
08:00 4.8 3.6 0.4 N 5.6 5.6 7.4 73 1029.6(1.2/3h) 16 0/8 -- --
07:00 3.9 3.9 -- NE 1.9 1.9 5.6 -- 1029.4(1.2/3h) 16 0/8 -- --
06:00 1.6 1.6 -0.5 NNO 0.0 5.6 5.6 86 1029.6(1.0/3h) 12 0/8 0/12h
--
05:00 0.3 0.3 -1.0 SSE 1.9 5.6 5.6 91 1029.3(0.7/3h) 12 0/8 -- --
04:00 -0.8 -0.8 -1.8 ESE 1.9 1.9 3.7 93 1029.1(-0.2/3h) 10 0/8 -- --
03:00 -0.6 -0.6 -1.7 ESE 1.9 3.7 5.6 92 1029.1(0.0/3h) 10 0/8 -- --
02:00 0.1 0.1 -1.2 E 3.7 3.7 5.6 91 1028.5(0.2/3h) 13 0/8 -- --
01:00 1.3 1.3 -0.7 E 3.7 3.7 5.6 86 1028.5(0.3/3h) 20 0/8 -- --
00:00 1.9 1.9 -0.5 E 1.9 5.6 9.3 84 1028.5(0.4/3h) 18 0/8 0/6h
0/24h
--

1 Coordinated Universal Time. Actuellement il est 14:00 locale et 13:00 UTC.

2 Le vent souffle depuis la direction indiquée vers la direction oposée.

3 Les rafales max. sont disponible 40 min après l'heure du relevé.

4 Pour les stations d'altitude (plus de 600m) le géopotentiel du niveau le plus proche de la pression obligatoire est indiqué.

5 Les stations disposant d'un diffuseur peuvent indiquer "trace". Cela signifie que des précipitations ont touchés le sol mais que la quantité est inférieure à 0.1 mm.

Récapitulatif de la journée
Température [°C] Vent [km/h] Ensoleillement4 [h] Precipitations totale5 [mm] Pression [Hpa]
Min1 Max.2 Moy.3 Max. Min Max.
-1.0 12.2 5.7 14.8 0 h 0 min 0 1027.0 1029.6

1 Température minimale relevée entre 18:00 UTC la veille et 18:00 UTC le jour donné.

2 Température maximale relevée entre 06:00 UTC le jour donné et 06:00 UTC le lendemain.

3 Vent moyen de la journée basé sur les relevés horaires.

4 Ensoleillement en heures relevé entre 06:00 UTC la veille et 06:00 UTC le jour donné.

5 Précipitations totales tombées entre 06:00 UTC la jour donné et 06:00 UTC le lendemain.

Graphiques horaires